sensor_id;sensor_type;location;lat;lon;timestamp;P1;durP1;ratioP1;P2;durP2;ratioP2
17725;SDS011;8983;53.156;17.960;2023-03-14T00:01:11;7.83;;;4.80;;
17725;SDS011;8983;53.156;17.960;2023-03-14T00:03:42;7.17;;;3.83;;
17725;SDS011;8983;53.156;17.960;2023-03-14T00:06:11;7.50;;;4.07;;
17725;SDS011;8983;53.156;17.960;2023-03-14T00:08:40;5.20;;;4.10;;
17725;SDS011;8983;53.156;17.960;2023-03-14T00:11:09;9.67;;;5.13;;
17725;SDS011;8983;53.156;17.960;2023-03-14T00:13:38;5.63;;;4.00;;
17725;SDS011;8983;53.156;17.960;2023-03-14T00:16:07;5.20;;;3.83;;
17725;SDS011;8983;53.156;17.960;2023-03-14T00:18:37;8.13;;;5.03;;
17725;SDS011;8983;53.156;17.960;2023-03-14T00:21:08;5.97;;;3.67;;
17725;SDS011;8983;53.156;17.960;2023-03-14T00:23:38;6.50;;;4.17;;
17725;SDS011;8983;53.156;17.960;2023-03-14T00:26:08;4.80;;;3.60;;
17725;SDS011;8983;53.156;17.960;2023-03-14T00:28:37;7.87;;;4.30;;
17725;SDS011;8983;53.156;17.960;2023-03-14T00:31:06;7.20;;;4.27;;
17725;SDS011;8983;53.156;17.960;2023-03-14T00:33:36;6.33;;;4.23;;
17725;SDS011;8983;53.156;17.960;2023-03-14T00:36:05;6.77;;;3.83;;
17725;SDS011;8983;53.156;17.960;2023-03-14T00:38:37;5.70;;;4.30;;
17725;SDS011;8983;53.156;17.960;2023-03-14T00:41:07;6.97;;;3.70;;
17725;SDS011;8983;53.156;17.960;2023-03-14T00:43:36;5.70;;;4.37;;
17725;SDS011;8983;53.156;17.960;2023-03-14T00:46:04;7.07;;;4.27;;
17725;SDS011;8983;53.156;17.960;2023-03-14T00:48:33;4.97;;;3.47;;
17725;SDS011;8983;53.156;17.960;2023-03-14T00:51:03;7.97;;;5.00;;
17725;SDS011;8983;53.156;17.960;2023-03-14T00:53:35;8.83;;;4.17;;
17725;SDS011;8983;53.156;17.960;2023-03-14T00:56:06;7.17;;;3.67;;
17725;SDS011;8983;53.156;17.960;2023-03-14T00:58:36;5.13;;;3.80;;
17725;SDS011;8983;53.156;17.960;2023-03-14T01:01:05;5.30;;;3.93;;
17725;SDS011;8983;53.156;17.960;2023-03-14T01:03:34;4.87;;;3.83;;
17725;SDS011;8983;53.156;17.960;2023-03-14T01:06:09;4.97;;;2.93;;
17725;SDS011;8983;53.156;17.960;2023-03-14T01:08:39;5.40;;;4.00;;
17725;SDS011;8983;53.156;17.960;2023-03-14T01:11:08;5.17;;;3.40;;
17725;SDS011;8983;53.156;17.960;2023-03-14T01:13:38;4.50;;;2.80;;
17725;SDS011;8983;53.156;17.960;2023-03-14T01:16:07;5.27;;;3.20;;
17725;SDS011;8983;53.156;17.960;2023-03-14T01:18:37;6.27;;;3.13;;
17725;SDS011;8983;53.156;17.960;2023-03-14T01:21:09;3.90;;;3.50;;
17725;SDS011;8983;53.156;17.960;2023-03-14T01:23:40;4.50;;;3.00;;
17725;SDS011;8983;53.156;17.960;2023-03-14T01:26:09;5.37;;;3.17;;
17725;SDS011;8983;53.156;17.960;2023-03-14T01:28:37;4.67;;;3.07;;
17725;SDS011;8983;53.156;17.960;2023-03-14T01:31:06;4.10;;;3.37;;
17725;SDS011;8983;53.156;17.960;2023-03-14T01:33:36;4.30;;;3.27;;
17725;SDS011;8983;53.156;17.960;2023-03-14T01:36:05;5.17;;;3.23;;
17725;SDS011;8983;53.156;17.960;2023-03-14T01:38:35;4.30;;;2.80;;
17725;SDS011;8983;53.156;17.960;2023-03-14T01:41:07;6.40;;;2.93;;
17725;SDS011;8983;53.156;17.960;2023-03-14T01:43:39;3.27;;;2.97;;
17725;SDS011;8983;53.156;17.960;2023-03-14T01:46:18;5.67;;;3.40;;
17725;SDS011;8983;53.156;17.960;2023-03-14T01:48:54;5.00;;;3.23;;
17725;SDS011;8983;53.156;17.960;2023-03-14T01:51:28;3.00;;;2.70;;
17725;SDS011;8983;53.156;17.960;2023-03-14T01:53:59;5.33;;;3.50;;
17725;SDS011;8983;53.156;17.960;2023-03-14T01:56:36;3.37;;;2.77;;
17725;SDS011;8983;53.156;17.960;2023-03-14T01:59:06;3.27;;;2.80;;
17725;SDS011;8983;53.156;17.960;2023-03-14T02:01:36;4.80;;;2.90;;
17725;SDS011;8983;53.156;17.960;2023-03-14T02:04:05;3.57;;;2.90;;
17725;SDS011;8983;53.156;17.960;2023-03-14T02:06:38;4.13;;;2.57;;
17725;SDS011;8983;53.156;17.960;2023-03-14T02:09:12;3.73;;;2.67;;
17725;SDS011;8983;53.156;17.960;2023-03-14T02:11:41;5.20;;;3.10;;
17725;SDS011;8983;53.156;17.960;2023-03-14T02:14:13;4.53;;;3.20;;
17725;SDS011;8983;53.156;17.960;2023-03-14T02:16:47;3.30;;;3.00;;
17725;SDS011;8983;53.156;17.960;2023-03-14T02:19:16;4.30;;;2.73;;
17725;SDS011;8983;53.156;17.960;2023-03-14T02:21:49;4.33;;;2.60;;
17725;SDS011;8983;53.156;17.960;2023-03-14T02:24:25;5.60;;;3.40;;
17725;SDS011;8983;53.156;17.960;2023-03-14T02:27:05;5.13;;;3.50;;
17725;SDS011;8983;53.156;17.960;2023-03-14T02:29:35;3.80;;;3.10;;
17725;SDS011;8983;53.156;17.960;2023-03-14T02:32:07;4.17;;;2.87;;
17725;SDS011;8983;53.156;17.960;2023-03-14T02:34:35;3.27;;;2.80;;
17725;SDS011;8983;53.156;17.960;2023-03-14T02:37:03;3.57;;;2.70;;
17725;SDS011;8983;53.156;17.960;2023-03-14T02:39:35;3.43;;;2.50;;
17725;SDS011;8983;53.156;17.960;2023-03-14T02:42:06;4.47;;;2.23;;
17725;SDS011;8983;53.156;17.960;2023-03-14T02:44:34;3.47;;;2.70;;
17725;SDS011;8983;53.156;17.960;2023-03-14T02:47:03;2.77;;;2.57;;
17725;SDS011;8983;53.156;17.960;2023-03-14T02:49:32;5.57;;;2.63;;
17725;SDS011;8983;53.156;17.960;2023-03-14T02:52:01;3.73;;;2.33;;
17725;SDS011;8983;53.156;17.960;2023-03-14T02:54:30;3.73;;;2.30;;
17725;SDS011;8983;53.156;17.960;2023-03-14T02:56:58;2.20;;;1.97;;
17725;SDS011;8983;53.156;17.960;2023-03-14T02:59:27;2.67;;;2.10;;
17725;SDS011;8983;53.156;17.960;2023-03-14T03:01:55;3.87;;;2.20;;
17725;SDS011;8983;53.156;17.960;2023-03-14T03:04:23;2.73;;;2.10;;
17725;SDS011;8983;53.156;17.960;2023-03-14T03:06:51;4.23;;;2.20;;
17725;SDS011;8983;53.156;17.960;2023-03-14T03:09:19;3.67;;;2.37;;
17725;SDS011;8983;53.156;17.960;2023-03-14T03:11:47;2.93;;;2.20;;
17725;SDS011;8983;53.156;17.960;2023-03-14T03:14:15;3.03;;;2.17;;
17725;SDS011;8983;53.156;17.960;2023-03-14T03:16:45;4.17;;;2.23;;
17725;SDS011;8983;53.156;17.960;2023-03-14T03:19:13;2.00;;;1.90;;
17725;SDS011;8983;53.156;17.960;2023-03-14T03:21:42;2.90;;;1.70;;
17725;SDS011;8983;53.156;17.960;2023-03-14T03:24:10;2.13;;;1.93;;
17725;SDS011;8983;53.156;17.960;2023-03-14T03:26:38;2.67;;;1.97;;
17725;SDS011;8983;53.156;17.960;2023-03-14T03:29:06;1.70;;;1.60;;
17725;SDS011;8983;53.156;17.960;2023-03-14T03:31:36;3.47;;;2.13;;
17725;SDS011;8983;53.156;17.960;2023-03-14T03:34:05;1.77;;;1.67;;
17725;SDS011;8983;53.156;17.960;2023-03-14T03:36:33;2.77;;;1.70;;
17725;SDS011;8983;53.156;17.960;2023-03-14T03:39:01;1.90;;;1.50;;
17725;SDS011;8983;53.156;17.960;2023-03-14T03:41:30;1.80;;;1.67;;
17725;SDS011;8983;53.156;17.960;2023-03-14T03:43:58;2.10;;;1.90;;
17725;SDS011;8983;53.156;17.960;2023-03-14T03:46:26;2.17;;;1.80;;
17725;SDS011;8983;53.156;17.960;2023-03-14T03:48:54;1.93;;;1.80;;
17725;SDS011;8983;53.156;17.960;2023-03-14T03:51:24;2.40;;;2.20;;
17725;SDS011;8983;53.156;17.960;2023-03-14T03:53:53;3.80;;;2.20;;
17725;SDS011;8983;53.156;17.960;2023-03-14T03:56:21;2.73;;;2.20;;
17725;SDS011;8983;53.156;17.960;2023-03-14T03:58:49;2.83;;;2.40;;
17725;SDS011;8983;53.156;17.960;2023-03-14T04:01:17;2.90;;;2.20;;
17725;SDS011;8983;53.156;17.960;2023-03-14T04:03:45;2.93;;;2.13;;
17725;SDS011;8983;53.156;17.960;2023-03-14T04:06:13;3.03;;;2.20;;
17725;SDS011;8983;53.156;17.960;2023-03-14T04:08:43;3.67;;;2.57;;
17725;SDS011;8983;53.156;17.960;2023-03-14T04:11:11;4.03;;;2.93;;
17725;SDS011;8983;53.156;17.960;2023-03-14T04:13:41;5.33;;;4.17;;
17725;SDS011;8983;53.156;17.960;2023-03-14T04:16:11;6.47;;;3.23;;
17725;SDS011;8983;53.156;17.960;2023-03-14T04:18:43;7.80;;;3.23;;
17725;SDS011;8983;53.156;17.960;2023-03-14T04:21:11;3.33;;;2.70;;
17725;SDS011;8983;53.156;17.960;2023-03-14T04:23:40;3.63;;;3.10;;
17725;SDS011;8983;53.156;17.960;2023-03-14T04:26:09;5.60;;;3.37;;
17725;SDS011;8983;53.156;17.960;2023-03-14T04:28:37;4.83;;;3.57;;
17725;SDS011;8983;53.156;17.960;2023-03-14T04:31:08;4.87;;;3.20;;
17725;SDS011;8983;53.156;17.960;2023-03-14T04:33:37;3.97;;;3.50;;
17725;SDS011;8983;53.156;17.960;2023-03-14T04:36:06;3.07;;;2.70;;
17725;SDS011;8983;53.156;17.960;2023-03-14T04:38:36;4.77;;;3.03;;
17725;SDS011;8983;53.156;17.960;2023-03-14T04:41:04;11.03;;;5.83;;
17725;SDS011;8983;53.156;17.960;2023-03-14T04:43:34;4.53;;;3.80;;
17725;SDS011;8983;53.156;17.960;2023-03-14T04:46:02;6.23;;;4.00;;
17725;SDS011;8983;53.156;17.960;2023-03-14T04:48:30;5.30;;;4.13;;
17725;SDS011;8983;53.156;17.960;2023-03-14T04:50:58;4.50;;;3.70;;
17725;SDS011;8983;53.156;17.960;2023-03-14T04:53:26;7.30;;;3.57;;
17725;SDS011;8983;53.156;17.960;2023-03-14T04:55:58;4.17;;;3.47;;
17725;SDS011;8983;53.156;17.960;2023-03-14T04:58:26;7.47;;;3.63;;
17725;SDS011;8983;53.156;17.960;2023-03-14T05:00:55;5.37;;;3.80;;
17725;SDS011;8983;53.156;17.960;2023-03-14T05:03:28;5.23;;;4.13;;
17725;SDS011;8983;53.156;17.960;2023-03-14T05:05:56;3.90;;;3.47;;
17725;SDS011;8983;53.156;17.960;2023-03-14T05:08:25;3.87;;;3.47;;
17725;SDS011;8983;53.156;17.960;2023-03-14T05:10:53;5.57;;;3.57;;
17725;SDS011;8983;53.156;17.960;2023-03-14T05:13:21;3.30;;;3.00;;
17725;SDS011;8983;53.156;17.960;2023-03-14T05:15:50;5.93;;;3.60;;
17725;SDS011;8983;53.156;17.960;2023-03-14T05:18:19;5.30;;;4.00;;
17725;SDS011;8983;53.156;17.960;2023-03-14T05:20:49;5.50;;;3.73;;
17725;SDS011;8983;53.156;17.960;2023-03-14T05:23:18;5.43;;;3.80;;
17725;SDS011;8983;53.156;17.960;2023-03-14T05:25:46;6.40;;;3.80;;
17725;SDS011;8983;53.156;17.960;2023-03-14T05:28:14;6.60;;;4.10;;
17725;SDS011;8983;53.156;17.960;2023-03-14T05:30:42;5.90;;;3.53;;
17725;SDS011;8983;53.156;17.960;2023-03-14T05:33:10;5.57;;;4.23;;
17725;SDS011;8983;53.156;17.960;2023-03-14T05:35:40;6.33;;;3.83;;
17725;SDS011;8983;53.156;17.960;2023-03-14T05:38:09;6.77;;;4.27;;
17725;SDS011;8983;53.156;17.960;2023-03-14T05:40:37;6.47;;;4.37;;
17725;SDS011;8983;53.156;17.960;2023-03-14T05:43:05;6.63;;;4.37;;
17725;SDS011;8983;53.156;17.960;2023-03-14T05:45:34;7.40;;;4.70;;
17725;SDS011;8983;53.156;17.960;2023-03-14T05:48:02;6.37;;;4.47;;
17725;SDS011;8983;53.156;17.960;2023-03-14T05:50:31;6.93;;;5.07;;
17725;SDS011;8983;53.156;17.960;2023-03-14T05:53:01;6.97;;;4.47;;
17725;SDS011;8983;53.156;17.960;2023-03-14T05:55:29;5.83;;;4.37;;
17725;SDS011;8983;53.156;17.960;2023-03-14T05:57:57;9.80;;;4.63;;
17725;SDS011;8983;53.156;17.960;2023-03-14T06:00:25;5.63;;;4.50;;
17725;SDS011;8983;53.156;17.960;2023-03-14T06:02:53;6.40;;;4.67;;
17725;SDS011;8983;53.156;17.960;2023-03-14T06:05:21;5.80;;;4.60;;
17725;SDS011;8983;53.156;17.960;2023-03-14T06:07:49;5.47;;;4.00;;
17725;SDS011;8983;53.156;17.960;2023-03-14T06:10:19;6.10;;;4.13;;
17725;SDS011;8983;53.156;17.960;2023-03-14T06:12:47;6.93;;;4.83;;
17725;SDS011;8983;53.156;17.960;2023-03-14T06:15:15;7.30;;;5.37;;
17725;SDS011;8983;53.156;17.960;2023-03-14T06:17:43;8.83;;;5.97;;
17725;SDS011;8983;53.156;17.960;2023-03-14T06:20:12;10.20;;;5.87;;
17725;SDS011;8983;53.156;17.960;2023-03-14T06:22:40;12.33;;;7.00;;
17725;SDS011;8983;53.156;17.960;2023-03-14T06:25:08;8.27;;;5.07;;
17725;SDS011;8983;53.156;17.960;2023-03-14T06:27:38;7.90;;;5.53;;
17725;SDS011;8983;53.156;17.960;2023-03-14T06:30:06;7.93;;;5.20;;
17725;SDS011;8983;53.156;17.960;2023-03-14T06:32:35;7.87;;;4.77;;
17725;SDS011;8983;53.156;17.960;2023-03-14T06:35:04;7.60;;;5.07;;
17725;SDS011;8983;53.156;17.960;2023-03-14T06:37:32;7.57;;;4.30;;
17725;SDS011;8983;53.156;17.960;2023-03-14T06:40:01;7.63;;;3.53;;
17725;SDS011;8983;53.156;17.960;2023-03-14T06:42:31;5.83;;;4.33;;
17725;SDS011;8983;53.156;17.960;2023-03-14T06:45:01;5.23;;;3.87;;
17725;SDS011;8983;53.156;17.960;2023-03-14T06:47:29;6.33;;;4.63;;
17725;SDS011;8983;53.156;17.960;2023-03-14T06:49:57;6.93;;;4.50;;
17725;SDS011;8983;53.156;17.960;2023-03-14T06:52:25;8.57;;;4.33;;
17725;SDS011;8983;53.156;17.960;2023-03-14T06:54:54;4.37;;;3.50;;
17725;SDS011;8983;53.156;17.960;2023-03-14T06:57:22;6.60;;;4.27;;
17725;SDS011;8983;53.156;17.960;2023-03-14T06:59:50;5.00;;;4.00;;
17725;SDS011;8983;53.156;17.960;2023-03-14T07:02:19;4.40;;;3.70;;
17725;SDS011;8983;53.156;17.960;2023-03-14T07:05:07;7.00;;;3.80;;
17725;SDS011;8983;53.156;17.960;2023-03-14T07:07:36;6.47;;;4.00;;
17725;SDS011;8983;53.156;17.960;2023-03-14T07:10:04;4.20;;;3.80;;
17725;SDS011;8983;53.156;17.960;2023-03-14T07:12:35;4.57;;;3.43;;
17725;SDS011;8983;53.156;17.960;2023-03-14T07:15:03;3.07;;;2.73;;
17725;SDS011;8983;53.156;17.960;2023-03-14T07:17:45;4.60;;;3.87;;
17725;SDS011;8983;53.156;17.960;2023-03-14T07:20:14;6.33;;;4.47;;
17725;SDS011;8983;53.156;17.960;2023-03-14T07:22:43;9.63;;;4.73;;
17725;SDS011;8983;53.156;17.960;2023-03-14T07:25:14;6.53;;;4.87;;
17725;SDS011;8983;53.156;17.960;2023-03-14T07:27:42;6.57;;;4.20;;
17725;SDS011;8983;53.156;17.960;2023-03-14T07:30:11;6.80;;;3.73;;
17725;SDS011;8983;53.156;17.960;2023-03-14T07:32:39;6.13;;;3.63;;
17725;SDS011;8983;53.156;17.960;2023-03-14T07:35:09;7.63;;;4.70;;
17725;SDS011;8983;53.156;17.960;2023-03-14T07:37:37;4.60;;;3.40;;
17725;SDS011;8983;53.156;17.960;2023-03-14T07:40:06;7.13;;;4.80;;
17725;SDS011;8983;53.156;17.960;2023-03-14T07:42:34;8.73;;;4.60;;
17725;SDS011;8983;53.156;17.960;2023-03-14T07:45:02;8.20;;;4.83;;
17725;SDS011;8983;53.156;17.960;2023-03-14T07:47:33;9.90;;;4.73;;
17725;SDS011;8983;53.156;17.960;2023-03-14T07:50:01;7.23;;;4.40;;
17725;SDS011;8983;53.156;17.960;2023-03-14T07:52:31;6.63;;;4.77;;
17725;SDS011;8983;53.156;17.960;2023-03-14T07:54:59;3.83;;;2.90;;
17725;SDS011;8983;53.156;17.960;2023-03-14T07:57:27;5.67;;;4.17;;
17725;SDS011;8983;53.156;17.960;2023-03-14T07:59:55;7.60;;;4.13;;
17725;SDS011;8983;53.156;17.960;2023-03-14T08:02:23;5.07;;;4.17;;
17725;SDS011;8983;53.156;17.960;2023-03-14T08:04:51;6.40;;;3.83;;
17725;SDS011;8983;53.156;17.960;2023-03-14T08:07:19;8.47;;;4.50;;
17725;SDS011;8983;53.156;17.960;2023-03-14T08:09:48;8.73;;;4.70;;
17725;SDS011;8983;53.156;17.960;2023-03-14T08:12:16;9.60;;;4.60;;
17725;SDS011;8983;53.156;17.960;2023-03-14T08:14:44;6.53;;;4.70;;
17725;SDS011;8983;53.156;17.960;2023-03-14T08:17:12;7.67;;;5.10;;
17725;SDS011;8983;53.156;17.960;2023-03-14T08:19:40;6.00;;;3.87;;
17725;SDS011;8983;53.156;17.960;2023-03-14T08:22:09;8.50;;;5.47;;
17725;SDS011;8983;53.156;17.960;2023-03-14T08:24:37;5.87;;;4.00;;
17725;SDS011;8983;53.156;17.960;2023-03-14T08:27:07;7.53;;;4.47;;
17725;SDS011;8983;53.156;17.960;2023-03-14T08:29:36;4.83;;;3.80;;
17725;SDS011;8983;53.156;17.960;2023-03-14T08:32:04;5.13;;;3.60;;
17725;SDS011;8983;53.156;17.960;2023-03-14T08:34:33;8.53;;;4.47;;
17725;SDS011;8983;53.156;17.960;2023-03-14T08:37:01;8.10;;;4.00;;
17725;SDS011;8983;53.156;17.960;2023-03-14T08:39:36;8.37;;;4.50;;
17725;SDS011;8983;53.156;17.960;2023-03-14T08:42:04;6.03;;;4.30;;
17725;SDS011;8983;53.156;17.960;2023-03-14T08:44:33;6.23;;;4.40;;
17725;SDS011;8983;53.156;17.960;2023-03-14T08:47:01;8.33;;;4.57;;
17725;SDS011;8983;53.156;17.960;2023-03-14T08:49:29;8.77;;;4.53;;
17725;SDS011;8983;53.156;17.960;2023-03-14T08:51:58;7.67;;;5.10;;
17725;SDS011;8983;53.156;17.960;2023-03-14T08:54:26;4.77;;;3.70;;
17725;SDS011;8983;53.156;17.960;2023-03-14T08:56:54;8.10;;;4.17;;
17725;SDS011;8983;53.156;17.960;2023-03-14T08:59:22;7.73;;;4.67;;
17725;SDS011;8983;53.156;17.960;2023-03-14T09:01:52;8.03;;;4.40;;
17725;SDS011;8983;53.156;17.960;2023-03-14T09:04:21;6.07;;;3.77;;
17725;SDS011;8983;53.156;17.960;2023-03-14T09:06:49;3.73;;;3.20;;
17725;SDS011;8983;53.156;17.960;2023-03-14T09:09:17;5.27;;;2.97;;
17725;SDS011;8983;53.156;17.960;2023-03-14T09:11:45;7.07;;;3.90;;
17725;SDS011;8983;53.156;17.960;2023-03-14T09:14:13;5.57;;;3.57;;
17725;SDS011;8983;53.156;17.960;2023-03-14T09:16:41;6.27;;;4.03;;
17725;SDS011;8983;53.156;17.960;2023-03-14T09:19:10;8.40;;;4.33;;
17725;SDS011;8983;53.156;17.960;2023-03-14T09:21:39;7.00;;;3.80;;
17725;SDS011;8983;53.156;17.960;2023-03-14T09:24:07;2.80;;;2.40;;
17725;SDS011;8983;53.156;17.960;2023-03-14T09:26:35;2.97;;;2.53;;
17725;SDS011;8983;53.156;17.960;2023-03-14T09:29:03;7.93;;;3.50;;
17725;SDS011;8983;53.156;17.960;2023-03-14T09:31:31;4.10;;;2.93;;
17725;SDS011;8983;53.156;17.960;2023-03-14T09:33:59;4.53;;;3.40;;
17725;SDS011;8983;53.156;17.960;2023-03-14T09:36:29;5.70;;;3.00;;
17725;SDS011;8983;53.156;17.960;2023-03-14T09:38:57;4.73;;;2.57;;
17725;SDS011;8983;53.156;17.960;2023-03-14T09:41:26;3.57;;;2.50;;
17725;SDS011;8983;53.156;17.960;2023-03-14T09:43:59;4.87;;;2.80;;
17725;SDS011;8983;53.156;17.960;2023-03-14T09:46:31;2.57;;;2.30;;
17725;SDS011;8983;53.156;17.960;2023-03-14T09:49:02;4.47;;;2.77;;
17725;SDS011;8983;53.156;17.960;2023-03-14T09:51:39;3.43;;;3.10;;
17725;SDS011;8983;53.156;17.960;2023-03-14T09:54:13;2.33;;;2.03;;
17725;SDS011;8983;53.156;17.960;2023-03-14T09:56:52;2.80;;;2.50;;
17725;SDS011;8983;53.156;17.960;2023-03-14T09:59:21;3.20;;;2.53;;
17725;SDS011;8983;53.156;17.960;2023-03-14T10:01:50;4.03;;;2.50;;
17725;SDS011;8983;53.156;17.960;2023-03-14T10:04:19;2.60;;;2.40;;
17725;SDS011;8983;53.156;17.960;2023-03-14T10:06:51;5.03;;;3.00;;
17725;SDS011;8983;53.156;17.960;2023-03-14T10:09:20;3.93;;;2.30;;
17725;SDS011;8983;53.156;17.960;2023-03-14T10:11:53;2.33;;;2.13;;
17725;SDS011;8983;53.156;17.960;2023-03-14T10:14:29;4.20;;;2.23;;
17725;SDS011;8983;53.156;17.960;2023-03-14T10:17:04;5.33;;;2.27;;
17725;SDS011;8983;53.156;17.960;2023-03-14T10:19:35;3.47;;;2.00;;
17725;SDS011;8983;53.156;17.960;2023-03-14T10:22:05;2.87;;;2.23;;
17725;SDS011;8983;53.156;17.960;2023-03-14T10:24:44;4.13;;;2.13;;
17725;SDS011;8983;53.156;17.960;2023-03-14T10:27:18;3.13;;;2.20;;
17725;SDS011;8983;53.156;17.960;2023-03-14T10:29:51;2.57;;;2.00;;
17725;SDS011;8983;53.156;17.960;2023-03-14T10:32:28;3.80;;;2.20;;
17725;SDS011;8983;53.156;17.960;2023-03-14T10:35:04;3.93;;;2.37;;
17725;SDS011;8983;53.156;17.960;2023-03-14T10:37:36;4.73;;;2.47;;
17725;SDS011;8983;53.156;17.960;2023-03-14T10:40:18;3.33;;;2.10;;
17725;SDS011;8983;53.156;17.960;2023-03-14T10:42:48;3.60;;;2.07;;
17725;SDS011;8983;53.156;17.960;2023-03-14T10:48:18;2.17;;;1.90;;
17725;SDS011;8983;53.156;17.960;2023-03-14T10:50:48;4.83;;;2.30;;
17725;SDS011;8983;53.156;17.960;2023-03-14T10:53:22;4.23;;;2.27;;
17725;SDS011;8983;53.156;17.960;2023-03-14T10:55:53;4.27;;;2.53;;
17725;SDS011;8983;53.156;17.960;2023-03-14T10:58:25;3.20;;;1.90;;
17725;SDS011;8983;53.156;17.960;2023-03-14T11:01:00;3.13;;;1.93;;
17725;SDS011;8983;53.156;17.960;2023-03-14T11:03:36;6.07;;;2.80;;
17725;SDS011;8983;53.156;17.960;2023-03-14T11:06:10;2.77;;;1.93;;
17725;SDS011;8983;53.156;17.960;2023-03-14T11:08:44;4.97;;;2.50;;
17725;SDS011;8983;53.156;17.960;2023-03-14T11:11:18;3.87;;;2.90;;
17725;SDS011;8983;53.156;17.960;2023-03-14T11:13:53;6.27;;;3.03;;
17725;SDS011;8983;53.156;17.960;2023-03-14T11:16:30;3.83;;;2.37;;
17725;SDS011;8983;53.156;17.960;2023-03-14T11:22:24;3.57;;;2.20;;
17725;SDS011;8983;53.156;17.960;2023-03-14T11:25:18;2.47;;;2.27;;
17725;SDS011;8983;53.156;17.960;2023-03-14T11:27:53;5.07;;;2.50;;
17725;SDS011;8983;53.156;17.960;2023-03-14T11:30:29;3.63;;;2.60;;
17725;SDS011;8983;53.156;17.960;2023-03-14T11:33:03;4.97;;;2.30;;
17725;SDS011;8983;53.156;17.960;2023-03-14T11:35:37;3.60;;;2.27;;
17725;SDS011;8983;53.156;17.960;2023-03-14T11:38:13;5.03;;;2.57;;
17725;SDS011;8983;53.156;17.960;2023-03-14T11:40:46;5.20;;;2.47;;
17725;SDS011;8983;53.156;17.960;2023-03-14T11:43:17;4.53;;;2.40;;
17725;SDS011;8983;53.156;17.960;2023-03-14T11:45:52;2.30;;;2.10;;
17725;SDS011;8983;53.156;17.960;2023-03-14T11:48:26;4.80;;;2.53;;
17725;SDS011;8983;53.156;17.960;2023-03-14T11:50:59;4.70;;;2.40;;
17725;SDS011;8983;53.156;17.960;2023-03-14T11:53:36;2.17;;;1.87;;
17725;SDS011;8983;53.156;17.960;2023-03-14T11:56:13;7.07;;;3.53;;
17725;SDS011;8983;53.156;17.960;2023-03-14T11:58:50;4.50;;;2.73;;
17725;SDS011;8983;53.156;17.960;2023-03-14T12:01:23;4.43;;;2.30;;
17725;SDS011;8983;53.156;17.960;2023-03-14T12:04:00;6.97;;;3.30;;
17725;SDS011;8983;53.156;17.960;2023-03-14T12:06:37;3.17;;;2.40;;
17725;SDS011;8983;53.156;17.960;2023-03-14T12:09:12;3.87;;;2.37;;
17725;SDS011;8983;53.156;17.960;2023-03-14T12:11:42;3.47;;;2.07;;
17725;SDS011;8983;53.156;17.960;2023-03-14T12:14:18;7.33;;;3.07;;
17725;SDS011;8983;53.156;17.960;2023-03-14T12:16:50;4.37;;;2.93;;
17725;SDS011;8983;53.156;17.960;2023-03-14T12:19:27;3.80;;;2.60;;
17725;SDS011;8983;53.156;17.960;2023-03-14T12:22:01;2.90;;;2.50;;
17725;SDS011;8983;53.156;17.960;2023-03-14T12:24:36;5.10;;;2.57;;
17725;SDS011;8983;53.156;17.960;2023-03-14T12:27:09;6.33;;;2.90;;
17725;SDS011;8983;53.156;17.960;2023-03-14T12:30:01;8.33;;;4.77;;
17725;SDS011;8983;53.156;17.960;2023-03-14T12:32:33;10.57;;;5.80;;
17725;SDS011;8983;53.156;17.960;2023-03-14T12:35:06;6.23;;;3.27;;
17725;SDS011;8983;53.156;17.960;2023-03-14T12:38:00;6.47;;;3.10;;
17725;SDS011;8983;53.156;17.960;2023-03-14T12:40:31;7.53;;;4.00;;
17725;SDS011;8983;53.156;17.960;2023-03-14T12:43:10;6.90;;;4.23;;
17725;SDS011;8983;53.156;17.960;2023-03-14T12:46:09;5.63;;;2.93;;
17725;SDS011;8983;53.156;17.960;2023-03-14T12:48:47;6.00;;;3.73;;
17725;SDS011;8983;53.156;17.960;2023-03-14T12:51:18;5.33;;;3.40;;
17725;SDS011;8983;53.156;17.960;2023-03-14T12:53:53;4.33;;;2.63;;
17725;SDS011;8983;53.156;17.960;2023-03-14T12:56:37;5.00;;;2.93;;
17725;SDS011;8983;53.156;17.960;2023-03-14T12:59:31;5.27;;;2.40;;
17725;SDS011;8983;53.156;17.960;2023-03-14T13:02:01;7.07;;;3.27;;
17725;SDS011;8983;53.156;17.960;2023-03-14T13:04:44;6.70;;;3.63;;
17725;SDS011;8983;53.156;17.960;2023-03-14T13:07:28;5.67;;;3.03;;
17725;SDS011;8983;53.156;17.960;2023-03-14T13:10:03;8.27;;;3.73;;
17725;SDS011;8983;53.156;17.960;2023-03-14T13:12:51;4.50;;;2.80;;
17725;SDS011;8983;53.156;17.960;2023-03-14T13:15:24;5.60;;;2.93;;
17725;SDS011;8983;53.156;17.960;2023-03-14T13:17:58;6.70;;;2.97;;
17725;SDS011;8983;53.156;17.960;2023-03-14T13:20:30;3.00;;;2.17;;
17725;SDS011;8983;53.156;17.960;2023-03-14T13:23:01;4.67;;;2.87;;
17725;SDS011;8983;53.156;17.960;2023-03-14T13:25:30;5.47;;;3.20;;
17725;SDS011;8983;53.156;17.960;2023-03-14T13:28:01;6.63;;;3.70;;
17725;SDS011;8983;53.156;17.960;2023-03-14T13:30:38;8.30;;;3.97;;
17725;SDS011;8983;53.156;17.960;2023-03-14T13:33:11;7.23;;;4.20;;
17725;SDS011;8983;53.156;17.960;2023-03-14T13:35:41;8.40;;;3.60;;
17725;SDS011;8983;53.156;17.960;2023-03-14T13:38:15;6.10;;;3.77;;
17725;SDS011;8983;53.156;17.960;2023-03-14T13:40:45;10.97;;;5.57;;
17725;SDS011;8983;53.156;17.960;2023-03-14T13:43:16;10.90;;;5.47;;
17725;SDS011;8983;53.156;17.960;2023-03-14T13:45:51;9.33;;;4.80;;
17725;SDS011;8983;53.156;17.960;2023-03-14T13:48:21;8.60;;;5.10;;
17725;SDS011;8983;53.156;17.960;2023-03-14T13:50:51;6.70;;;4.77;;
17725;SDS011;8983;53.156;17.960;2023-03-14T13:53:21;7.33;;;3.60;;
17725;SDS011;8983;53.156;17.960;2023-03-14T13:55:52;10.77;;;5.13;;
17725;SDS011;8983;53.156;17.960;2023-03-14T13:58:22;6.83;;;3.83;;
17725;SDS011;8983;53.156;17.960;2023-03-14T14:01:00;7.97;;;3.90;;
17725;SDS011;8983;53.156;17.960;2023-03-14T14:03:32;5.60;;;3.60;;
17725;SDS011;8983;53.156;17.960;2023-03-14T14:06:10;8.57;;;4.60;;
17725;SDS011;8983;53.156;17.960;2023-03-14T14:08:46;6.40;;;2.90;;
17725;SDS011;8983;53.156;17.960;2023-03-14T14:11:18;7.00;;;3.37;;
17725;SDS011;8983;53.156;17.960;2023-03-14T14:14:00;7.13;;;3.50;;
17725;SDS011;8983;53.156;17.960;2023-03-14T14:16:31;3.53;;;2.27;;
17725;SDS011;8983;53.156;17.960;2023-03-14T14:18:59;9.87;;;3.97;;
17725;SDS011;8983;53.156;17.960;2023-03-14T14:21:29;8.07;;;3.43;;
17725;SDS011;8983;53.156;17.960;2023-03-14T14:23:58;6.83;;;3.63;;
17725;SDS011;8983;53.156;17.960;2023-03-14T14:26:27;7.27;;;2.87;;
17725;SDS011;8983;53.156;17.960;2023-03-14T14:28:59;11.33;;;4.57;;
17725;SDS011;8983;53.156;17.960;2023-03-14T14:31:28;8.30;;;4.33;;
17725;SDS011;8983;53.156;17.960;2023-03-14T14:33:59;13.63;;;4.83;;
17725;SDS011;8983;53.156;17.960;2023-03-14T14:36:28;7.93;;;3.87;;
17725;SDS011;8983;53.156;17.960;2023-03-14T14:38:59;4.00;;;2.70;;
17725;SDS011;8983;53.156;17.960;2023-03-14T14:41:31;3.83;;;2.87;;
17725;SDS011;8983;53.156;17.960;2023-03-14T14:44:02;4.43;;;3.47;;
17725;SDS011;8983;53.156;17.960;2023-03-14T14:46:33;5.47;;;2.70;;
17725;SDS011;8983;53.156;17.960;2023-03-14T14:49:04;8.70;;;4.10;;
17725;SDS011;8983;53.156;17.960;2023-03-14T14:51:38;6.33;;;3.17;;
17725;SDS011;8983;53.156;17.960;2023-03-14T14:54:11;6.33;;;2.83;;
17725;SDS011;8983;53.156;17.960;2023-03-14T14:56:45;6.40;;;3.40;;
17725;SDS011;8983;53.156;17.960;2023-03-14T14:59:21;4.17;;;2.90;;
17725;SDS011;8983;53.156;17.960;2023-03-14T15:01:56;6.33;;;2.87;;
17725;SDS011;8983;53.156;17.960;2023-03-14T15:04:26;21.17;;;9.73;;
17725;SDS011;8983;53.156;17.960;2023-03-14T15:06:57;6.87;;;2.87;;
17725;SDS011;8983;53.156;17.960;2023-03-14T15:09:25;5.67;;;3.33;;
17725;SDS011;8983;53.156;17.960;2023-03-14T15:11:53;4.47;;;2.47;;
17725;SDS011;8983;53.156;17.960;2023-03-14T15:14:21;4.33;;;2.37;;
17725;SDS011;8983;53.156;17.960;2023-03-14T15:16:49;2.53;;;1.70;;